Time;durP1;ratioP1;P1;durP2;ratioP2;P2;SDS_P1;SDS_P2;PMS_P1;PMS_P2;Temp;Humidity;BMP_temperature;BMP_pressure;BME280_temperature;BME280_humidity;BME280_pressure;Samples;Min_cycle;Max_cycle;Signal;HPM_P1;HPM_P2
2021/05/12 00:00:10;;;;;;;1.27;1.17;;;10.80;99.90;;;;;;5053610;28;20449;-79
2021/05/12 00:02:37;;;;;;;1.20;1.10;;;10.70;99.90;;;;;;5053348;28;20464;-80
2021/05/12 00:05:04;;;;;;;2.43;1.70;;;10.80;99.90;;;;;;5053197;28;20532;-80
2021/05/12 00:07:31;;;;;;;4.23;1.60;;;10.70;99.90;;;;;;5053294;28;20454;-80
2021/05/12 00:09:57;;;;;;;1.50;1.40;;;10.70;99.90;;;;;;5053499;28;20442;-80
2021/05/12 00:12:23;;;;;;;3.47;1.30;;;10.80;99.90;;;;;;5053428;28;20500;-80
2021/05/12 00:14:50;;;;;;;1.23;1.10;;;10.80;99.90;;;;;;5053372;28;20449;-80
2021/05/12 00:17:19;;;;;;;1.57;1.47;;;10.90;99.90;;;;;;5053386;28;20450;-80
2021/05/12 00:19:53;;;;;;;1.40;1.30;;;10.90;99.90;;;;;;5053011;28;20452;-79
2021/05/12 00:22:30;;;;;;;1.93;1.40;;;10.90;99.90;;;;;;5053042;28;21019;-80
2021/05/12 00:24:56;;;;;;;1.23;1.13;;;10.90;99.90;;;;;;5053274;28;20462;-80
2021/05/12 00:27:23;;;;;;;1.57;1.20;;;10.90;99.90;;;;;;5053181;28;20446;-80
2021/05/12 00:29:49;;;;;;;1.10;1.10;;;10.90;99.90;;;;;;5053234;28;20453;-80
2021/05/12 00:32:16;;;;;;;1.40;1.30;;;10.90;99.90;;;;;;5053009;28;20452;-80
2021/05/12 00:34:42;;;;;;;1.10;1.00;;;10.90;99.90;;;;;;5052866;28;20446;-79
2021/05/12 00:37:09;;;;;;;1.40;1.30;;;10.90;99.90;;;;;;5053875;28;20806;-80
2021/05/12 00:39:35;;;;;;;1.00;1.00;;;10.90;99.90;;;;;;5052771;28;21000;-80
2021/05/12 00:42:01;;;;;;;1.50;1.20;;;10.90;99.90;;;;;;5053133;28;20464;-80
2021/05/12 00:44:28;;;;;;;1.13;1.10;;;10.90;99.90;;;;;;5056379;28;20484;-80
2021/05/12 00:46:54;;;;;;;1.93;1.10;;;10.90;99.90;;;;;;5056933;28;20956;-80
2021/05/12 00:49:22;;;;;;;2.30;1.73;;;10.80;99.90;;;;;;5056782;28;20511;-80
2021/05/12 00:51:49;;;;;;;2.20;1.10;;;10.80;99.90;;;;;;5057143;28;20464;-80
2021/05/12 00:54:15;;;;;;;2.00;1.00;;;10.80;99.90;;;;;;5057070;28;20450;-80
2021/05/12 00:56:43;;;;;;;2.10;1.00;;;10.80;99.90;;;;;;5057049;28;20453;-80
2021/05/12 00:59:10;;;;;;;1.20;1.03;;;10.70;99.90;;;;;;5056929;28;20466;-80
2021/05/12 01:01:37;;;;;;;1.30;1.10;;;10.70;99.90;;;;;;5056950;28;20499;-79
2021/05/12 01:04:04;;;;;;;0.90;0.90;;;10.70;99.90;;;;;;5056825;28;20801;-79
2021/05/12 01:06:33;;;;;;;1.27;1.10;;;10.70;99.90;;;;;;5056868;28;20454;-80
2021/05/12 01:09:00;;;;;;;1.00;1.00;;;10.70;99.90;;;;;;5056670;28;20815;-79
2021/05/12 01:11:27;;;;;;;1.00;1.00;;;10.60;99.90;;;;;;5056759;28;20449;-80
2021/05/12 01:13:54;;;;;;;1.50;0.80;;;10.60;99.90;;;;;;5056702;28;20461;-80
2021/05/12 01:16:21;;;;;;;1.00;0.90;;;10.60;99.90;;;;;;5057185;28;20468;-80
2021/05/12 01:18:48;;;;;;;0.70;0.70;;;10.50;99.90;;;;;;5056342;28;20458;-80
2021/05/12 01:21:16;;;;;;;3.13;0.73;;;10.50;99.90;;;;;;5056456;28;20821;-79
2021/05/12 01:23:46;;;;;;;2.00;0.80;;;10.50;99.90;;;;;;5056205;28;20453;-80
2021/05/12 01:26:14;;;;;;;1.67;0.90;;;10.40;99.90;;;;;;5056476;28;20471;-80
2021/05/12 01:28:42;;;;;;;0.80;0.80;;;10.40;99.90;;;;;;5056366;28;20465;-80
2021/05/12 01:31:12;;;;;;;0.90;0.70;;;10.40;99.90;;;;;;5056091;28;20971;-82
2021/05/12 01:33:39;;;;;;;1.00;0.90;;;10.40;99.90;;;;;;5056338;28;20457;-82
2021/05/12 01:36:07;;;;;;;0.80;0.80;;;10.40;99.90;;;;;;5056081;28;20434;-81
2021/05/12 01:38:36;;;;;;;1.00;1.00;;;10.40;99.90;;;;;;5056129;28;20476;-82
2021/05/12 01:41:03;;;;;;;0.90;0.90;;;10.40;99.90;;;;;;5055900;28;20949;-80
2021/05/12 01:43:30;;;;;;;0.90;0.80;;;10.30;99.90;;;;;;5056167;28;20441;-80
2021/05/12 01:45:56;;;;;;;0.80;0.80;;;10.30;99.90;;;;;;5055809;28;20496;-80
2021/05/12 01:48:24;;;;;;;1.10;1.00;;;10.30;99.90;;;;;;5055641;28;20485;-82
2021/05/12 01:50:51;;;;;;;0.80;0.80;;;10.30;99.90;;;;;;5056023;28;20468;-80
2021/05/12 01:53:17;;;;;;;0.80;0.80;;;10.30;99.90;;;;;;5055928;28;20436;-79
2021/05/12 01:55:46;;;;;;;0.80;0.70;;;10.30;99.90;;;;;;5054433;28;20437;-80
2021/05/12 01:58:13;;;;;;;0.90;0.80;;;10.30;99.90;;;;;;5055785;28;20474;-80
2021/05/12 02:00:41;;;;;;;1.03;0.80;;;10.30;99.90;;;;;;5056165;28;20450;-80
2021/05/12 02:03:08;;;;;;;0.90;0.90;;;10.30;99.90;;;;;;5055773;28;20528;-80
2021/05/12 02:05:36;;;;;;;1.10;1.00;;;10.20;99.90;;;;;;5055432;28;20495;-80
2021/05/12 02:08:04;;;;;;;1.17;0.93;;;10.20;99.90;;;;;;5055285;28;20473;-80
2021/05/12 02:10:30;;;;;;;1.43;0.80;;;10.20;99.90;;;;;;5055715;28;20441;-79
2021/05/12 02:12:58;;;;;;;0.93;0.90;;;10.20;99.90;;;;;;5055584;28;20454;-80
2021/05/12 02:15:24;;;;;;;1.10;1.10;;;10.20;99.90;;;;;;5055552;28;20446;-79
2021/05/12 02:17:51;;;;;;;1.53;1.10;;;10.30;99.90;;;;;;5055196;28;20965;-79
2021/05/12 02:20:20;;;;;;;1.00;1.00;;;10.20;99.90;;;;;;5055488;28;20445;-79
2021/05/12 02:22:46;;;;;;;2.20;1.17;;;10.20;99.90;;;;;;5055253;28;20456;-79
2021/05/12 02:25:12;;;;;;;1.40;1.20;;;10.20;99.90;;;;;;5054975;28;20859;-80
2021/05/12 02:27:39;;;;;;;1.47;1.37;;;10.20;99.90;;;;;;5055294;28;21809;-79
2021/05/12 02:30:08;;;;;;;1.87;1.33;;;10.20;99.90;;;;;;5055008;28;20438;-79
2021/05/12 02:32:34;;;;;;;1.97;1.80;;;10.20;99.90;;;;;;5055236;28;20453;-80
2021/05/12 02:35:01;;;;;;;1.77;1.53;;;10.20;99.90;;;;;;5055255;28;20442;-80
2021/05/12 02:37:28;;;;;;;2.30;1.47;;;10.10;99.90;;;;;;5055114;28;20452;-81
2021/05/12 02:39:55;;;;;;;1.83;1.73;;;10.10;99.90;;;;;;5055152;28;20430;-80
2021/05/12 02:42:21;;;;;;;1.60;1.50;;;10.10;99.90;;;;;;5055108;28;20453;-80
2021/05/12 02:44:48;;;;;;;1.57;1.40;;;10.10;99.90;;;;;;5055017;28;20470;-79
2021/05/12 02:47:15;;;;;;;1.90;1.80;;;10.10;99.90;;;;;;5054961;28;20450;-79
2021/05/12 02:49:41;;;;;;;3.30;1.63;;;10.10;99.90;;;;;;5054427;28;20980;-79
2021/05/12 02:52:08;;;;;;;3.43;2.03;;;10.10;99.90;;;;;;5054938;28;20499;-79
2021/05/12 02:54:35;;;;;;;2.50;2.03;;;10.10;99.90;;;;;;5054818;28;20446;-79
2021/05/12 02:57:02;;;;;;;5.23;2.20;;;10.10;99.90;;;;;;5054844;28;20446;-79
2021/05/12 02:59:29;;;;;;;2.47;1.70;;;10.10;99.90;;;;;;5054745;28;20458;-79
2021/05/12 03:01:56;;;;;;;2.00;1.80;;;10.10;99.90;;;;;;5054670;28;20446;-79
2021/05/12 03:04:23;;;;;;;4.10;2.33;;;10.20;99.90;;;;;;5054330;28;20445;-79
2021/05/12 03:06:49;;;;;;;4.30;2.63;;;10.20;99.90;;;;;;5054303;28;20451;-79
2021/05/12 03:09:16;;;;;;;2.33;2.03;;;10.20;99.90;;;;;;5054455;28;20474;-79
2021/05/12 03:11:42;;;;;;;6.23;2.10;;;10.20;99.90;;;;;;5054202;28;20449;-79
2021/05/12 03:14:10;;;;;;;3.20;2.77;;;10.20;99.90;;;;;;5054479;28;20452;-79
2021/05/12 03:16:37;;;;;;;4.70;3.03;;;10.20;99.90;;;;;;5054387;28;20461;-79
2021/05/12 03:19:04;;;;;;;3.60;2.90;;;10.20;99.90;;;;;;5054298;28;20466;-79
2021/05/12 03:21:32;;;;;;;4.43;3.03;;;10.20;99.90;;;;;;5054323;28;20823;-79
2021/05/12 03:23:59;;;;;;;4.27;3.33;;;10.20;99.90;;;;;;5053961;28;20930;-79
2021/05/12 03:26:26;;;;;;;4.77;2.97;;;10.20;99.90;;;;;;5054167;28;20520;-79
2021/05/12 03:28:52;;;;;;;3.63;2.93;;;10.20;99.90;;;;;;5054412;28;20477;-79
2021/05/12 03:31:19;;;;;;;3.23;2.73;;;10.20;99.90;;;;;;5053822;28;20495;-79
2021/05/12 03:33:45;;;;;;;6.60;3.23;;;10.20;99.90;;;;;;5053797;28;20441;-79
2021/05/12 03:36:11;;;;;;;5.03;3.23;;;10.20;99.90;;;;;;5053754;28;20452;-79
2021/05/12 03:38:39;;;;;;;2.97;2.77;;;10.20;99.90;;;;;;5053932;28;20541;-80
2021/05/12 03:41:07;;;;;;;13.47;3.47;;;10.20;99.90;;;;;;5053958;28;20450;-79
2021/05/12 03:43:34;;;;;;;3.23;2.93;;;10.20;99.90;;;;;;5053681;28;20930;-79
2021/05/12 03:46:00;;;;;;;3.90;3.13;;;10.20;99.90;;;;;;5053807;28;20481;-79
2021/05/12 03:48:26;;;;;;;3.60;3.17;;;10.20;99.90;;;;;;5053480;28;20485;-79
2021/05/12 03:50:53;;;;;;;3.10;2.90;;;10.20;99.90;;;;;;5053476;28;20945;-79
2021/05/12 03:53:19;;;;;;;3.47;3.10;;;10.20;99.90;;;;;;5053426;28;20966;-79
2021/05/12 03:55:46;;;;;;;4.53;3.33;;;10.20;99.90;;;;;;5053384;28;20949;-79
2021/05/12 03:58:13;;;;;;;4.17;3.77;;;10.20;99.90;;;;;;5053574;28;20481;-79
2021/05/12 04:00:39;;;;;;;7.67;4.30;;;10.20;99.90;;;;;;5053600;28;20450;-79
2021/05/12 04:03:06;;;;;;;3.07;2.87;;;10.30;99.90;;;;;;5053589;28;20772;-79
2021/05/12 04:05:32;;;;;;;3.90;3.60;;;10.30;99.90;;;;;;5053156;28;20907;-79
2021/05/12 04:07:58;;;;;;;3.87;3.27;;;10.30;99.90;;;;;;5053167;28;20491;-79
2021/05/12 04:10:24;;;;;;;5.87;4.10;;;10.30;99.90;;;;;;5053481;28;20514;-79
2021/05/12 04:12:51;;;;;;;6.60;3.97;;;10.20;99.90;;;;;;5053435;28;20560;-79
2021/05/12 04:15:18;;;;;;;6.20;3.97;;;10.20;99.90;;;;;;5053942;28;20445;-79
2021/05/12 04:17:44;;;;;;;5.73;4.17;;;10.20;99.90;;;;;;5052354;28;20979;-79
2021/05/12 04:20:13;;;;;;;5.43;4.00;;;10.20;99.90;;;;;;5053396;28;20794;-79
2021/05/12 04:22:40;;;;;;;4.87;4.20;;;10.20;99.90;;;;;;5053305;28;20449;-79
2021/05/12 04:25:10;;;;;;;6.00;4.10;;;10.20;99.90;;;;;;5053256;28;20477;-79
2021/05/12 04:27:36;;;;;;;6.77;4.60;;;10.20;99.90;;;;;;5053201;28;20438;-79
2021/05/12 04:30:04;;;;;;;5.67;5.07;;;10.20;99.90;;;;;;5053268;28;20459;-79
2021/05/12 04:32:30;;;;;;;5.40;4.30;;;10.20;99.90;;;;;;5052903;28;20945;-79
2021/05/12 04:34:57;;;;;;;5.60;4.60;;;10.20;99.90;;;;;;5053248;28;20445;-79
2021/05/12 04:37:23;;;;;;;10.10;5.10;;;10.20;99.90;;;;;;5052975;28;20507;-79
2021/05/12 04:39:49;;;;;;;9.40;4.30;;;10.20;99.90;;;;;;5052841;28;20956;-79
2021/05/12 04:42:15;;;;;;;9.90;4.83;;;10.30;99.90;;;;;;5053172;28;20457;-79
2021/05/12 04:44:42;;;;;;;5.10;4.60;;;10.30;99.90;;;;;;5052767;28;20481;-79
2021/05/12 04:47:09;;;;;;;4.20;3.80;;;10.30;99.90;;;;;;5053076;28;20454;-79
2021/05/12 04:49:35;;;;;;;7.00;4.63;;;10.30;99.90;;;;;;5052493;28;20481;-79
2021/05/12 04:52:01;;;;;;;6.37;5.70;;;10.30;99.90;;;;;;5053074;28;20460;-79
2021/05/12 04:54:27;;;;;;;7.67;5.80;;;10.30;99.90;;;;;;5053026;28;20441;-79
2021/05/12 04:56:54;;;;;;;5.53;4.80;;;10.30;99.90;;;;;;5053010;28;20450;-79
2021/05/12 04:59:20;;;;;;;5.30;4.40;;;10.30;99.90;;;;;;5052914;28;20476;-80
2021/05/12 05:01:47;;;;;;;4.97;3.27;;;10.30;99.90;;;;;;5053010;28;20442;-79
2021/05/12 05:04:16;;;;;;;7.23;3.23;;;10.30;99.90;;;;;;5052952;28;20456;-79
2021/05/12 05:06:42;;;;;;;3.30;2.73;;;10.30;99.90;;;;;;5052824;28;20485;-80
2021/05/12 05:09:09;;;;;;;3.50;3.20;;;10.30;99.90;;;;;;5052824;28;20900;-79
2021/05/12 05:11:35;;;;;;;4.60;2.40;;;10.30;99.90;;;;;;5052850;28;20456;-79
2021/05/12 05:14:01;;;;;;;2.90;2.70;;;10.30;99.90;;;;;;5052803;28;20450;-79
2021/05/12 05:16:28;;;;;;;3.73;2.20;;;10.30;99.90;;;;;;5052804;28;20808;-80
2021/05/12 05:18:54;;;;;;;2.70;2.50;;;10.30;99.90;;;;;;5052649;28;20469;-80
2021/05/12 05:21:21;;;;;;;3.10;2.33;;;10.30;99.90;;;;;;5052458;28;20864;-80
2021/05/12 05:23:48;;;;;;;3.50;2.40;;;10.30;99.90;;;;;;5052593;28;20845;-80
2021/05/12 05:26:14;;;;;;;5.50;3.00;;;10.30;99.90;;;;;;5052680;28;20491;-80
2021/05/12 05:28:40;;;;;;;2.50;2.30;;;10.30;99.90;;;;;;5052881;28;20457;-80
2021/05/12 05:31:06;;;;;;;2.87;2.67;;;10.30;99.90;;;;;;5056166;28;20442;-80
2021/05/12 05:33:32;;;;;;;7.87;3.80;;;10.30;99.90;;;;;;5056396;28;20434;-80
2021/05/12 05:35:59;;;;;;;2.97;2.57;;;10.40;99.90;;;;;;5056046;28;20941;-80
2021/05/12 05:38:26;;;;;;;3.10;2.80;;;10.40;99.90;;;;;;5056242;28;20523;-80
2021/05/12 05:40:52;;;;;;;4.20;2.50;;;10.40;99.90;;;;;;5056277;28;20495;-80
2021/05/12 05:43:18;;;;;;;5.47;3.07;;;10.30;99.90;;;;;;5055916;28;20438;-80
2021/05/12 05:45:45;;;;;;;2.50;2.30;;;10.30;99.90;;;;;;5056022;28;20482;-79
2021/05/12 05:48:11;;;;;;;2.70;2.50;;;10.30;99.90;;;;;;5055836;28;20481;-80
2021/05/12 05:50:38;;;;;;;3.77;2.03;;;10.30;99.90;;;;;;5056010;28;20483;-80
2021/05/12 05:53:04;;;;;;;5.43;2.50;;;10.30;99.90;;;;;;5056023;28;20450;-80
2021/05/12 05:55:31;;;;;;;2.10;1.83;;;10.30;99.90;;;;;;5055591;28;20446;-79
2021/05/12 05:57:57;;;;;;;3.23;2.50;;;10.30;99.90;;;;;;5055956;28;20492;-80
2021/05/12 06:00:24;;;;;;;7.20;2.90;;;10.30;99.90;;;;;;5055912;28;20576;-80
2021/05/12 06:02:51;;;;;;;4.23;2.20;;;10.30;99.90;;;;;;5055832;28;20454;-80
2021/05/12 06:05:17;;;;;;;5.23;2.50;;;10.20;99.90;;;;;;5055380;28;21066;-80
2021/05/12 06:07:43;;;;;;;2.37;2.17;;;10.30;99.90;;;;;;5055645;28;20834;-80
2021/05/12 06:10:10;;;;;;;5.60;2.60;;;10.20;99.90;;;;;;5055379;28;20450;-80
2021/05/12 06:12:37;;;;;;;4.57;2.67;;;10.30;99.90;;;;;;5055590;28;20456;-80
2021/05/12 06:15:05;;;;;;;4.23;2.90;;;10.20;99.90;;;;;;5055330;28;20442;-79
2021/05/12 06:17:32;;;;;;;2.57;2.37;;;10.20;99.90;;;;;;5055467;28;20450;-79
2021/05/12 06:19:58;;;;;;;2.50;2.27;;;10.30;99.90;;;;;;5055486;28;20457;-79
2021/05/12 06:22:25;;;;;;;4.97;2.50;;;10.30;99.90;;;;;;5055460;28;20505;-79
2021/05/12 06:24:51;;;;;;;4.30;3.10;;;10.20;99.90;;;;;;5055059;28;20996;-79
2021/05/12 06:27:19;;;;;;;2.90;2.60;;;10.20;99.90;;;;;;5055455;28;20430;-80
2021/05/12 06:29:46;;;;;;;3.57;2.77;;;10.20;99.90;;;;;;5055392;28;20519;-79
2021/05/12 06:32:12;;;;;;;2.60;2.40;;;10.20;99.90;;;;;;5055365;28;20429;-82
2021/05/12 06:34:38;;;;;;;3.33;2.80;;;10.20;99.90;;;;;;5055366;28;20908;-82
2021/05/12 06:37:05;;;;;;;3.43;3.10;;;10.20;99.90;;;;;;5054952;28;20909;-81
2021/05/12 06:39:31;;;;;;;3.17;2.33;;;10.20;99.90;;;;;;5055118;28;20531;-82
2021/05/12 06:41:57;;;;;;;3.20;2.37;;;10.10;99.90;;;;;;5054503;28;20429;-82
2021/05/12 06:44:24;;;;;;;3.20;2.63;;;10.10;99.90;;;;;;5054786;28;20913;-82
2021/05/12 06:46:52;;;;;;;2.47;2.27;;;10.10;99.90;;;;;;5054992;28;20473;-81
2021/05/12 06:49:18;;;;;;;3.00;2.57;;;10.10;99.90;;;;;;5054661;28;20553;-81
2021/05/12 06:51:44;;;;;;;2.90;2.60;;;10.20;99.90;;;;;;5054947;28;20430;-82
2021/05/12 06:54:11;;;;;;;3.30;2.70;;;10.10;99.90;;;;;;5054789;28;20418;-82
2021/05/12 06:56:37;;;;;;;2.93;2.73;;;10.20;99.90;;;;;;5054874;28;20443;-81
2021/05/12 06:59:04;;;;;;;3.33;3.03;;;10.10;99.90;;;;;;5054761;28;20469;-81
2021/05/12 07:01:30;;;;;;;4.23;2.70;;;10.20;99.90;;;;;;5054756;28;20438;-81
2021/05/12 07:03:57;;;;;;;2.97;2.70;;;10.10;99.90;;;;;;5054735;28;20430;-81
2021/05/12 07:06:23;;;;;;;7.20;3.30;;;10.20;99.90;;;;;;5054550;28;20535;-81
2021/05/12 07:08:50;;;;;;;4.13;2.73;;;10.20;99.90;;;;;;5054253;28;20972;-81
2021/05/12 07:11:17;;;;;;;3.70;3.40;;;10.20;99.90;;;;;;5054550;28;20452;-81
2021/05/12 07:13:43;;;;;;;2.60;2.40;;;10.20;99.90;;;;;;5054151;28;20503;-81
2021/05/12 07:16:09;;;;;;;3.13;2.20;;;10.20;99.90;;;;;;5054422;28;20446;-82
2021/05/12 07:18:36;;;;;;;3.03;2.73;;;10.20;99.90;;;;;;5054102;28;20454;-82
2021/05/12 07:21:03;;;;;;;2.23;2.13;;;10.30;99.90;;;;;;5054074;28;20856;-82
2021/05/12 07:23:29;;;;;;;2.90;2.40;;;10.30;99.90;;;;;;5054312;28;20503;-81
2021/05/12 07:25:56;;;;;;;2.43;2.23;;;10.30;99.90;;;;;;5054180;28;20503;-82
2021/05/12 07:28:23;;;;;;;3.73;2.60;;;10.30;99.90;;;;;;5054121;28;20466;-82
2021/05/12 07:30:50;;;;;;;4.10;2.20;;;10.40;99.90;;;;;;5053907;28;20435;-81
2021/05/12 07:33:17;;;;;;;3.87;2.33;;;10.50;99.90;;;;;;5050300;28;20451;-81
2021/05/12 07:35:43;;;;;;;2.00;1.90;;;10.50;99.90;;;;;;5034122;28;20434;-81
2021/05/12 07:38:11;;;;;;;4.20;2.47;;;10.50;99.90;;;;;;5048116;28;20889;-81
2021/05/12 07:40:37;;;;;;;3.40;2.20;;;10.50;99.90;;;;;;5042966;28;20447;-83
2021/05/12 07:43:08;;;;;;;5.93;3.37;;;10.60;99.90;;;;;;5043851;28;20450;-82
2021/05/12 07:45:36;;;;;;;2.57;2.10;;;10.60;99.90;;;;;;5053139;28;20466;-81
2021/05/12 07:48:02;;;;;;;2.30;2.10;;;10.70;99.90;;;;;;5039194;28;20487;-81
2021/05/12 07:50:29;;;;;;;2.47;2.37;;;10.70;99.90;;;;;;5050339;28;20445;-82
2021/05/12 07:52:55;;;;;;;5.70;2.13;;;10.80;99.90;;;;;;5037678;28;20507;-82
2021/05/12 07:55:22;;;;;;;2.00;1.80;;;10.90;99.90;;;;;;5053684;28;20453;-82
2021/05/12 07:57:48;;;;;;;6.87;2.03;;;11.00;99.90;;;;;;5037615;28;21008;-82
2021/05/12 08:00:16;;;;;;;4.07;2.10;;;11.10;99.90;;;;;;5033268;28;20447;-82
2021/05/12 08:02:42;;;;;;;5.07;2.93;;;11.10;99.90;;;;;;5046360;28;20445;-82
2021/05/12 08:05:10;;;;;;;2.77;1.77;;;11.20;99.90;;;;;;5040013;28;20477;-82
2021/05/12 08:07:37;;;;;;;1.97;1.50;;;11.20;99.90;;;;;;5040200;28;20462;-82
2021/05/12 08:10:04;;;;;;;9.13;2.20;;;11.30;99.90;;;;;;5044267;28;20455;-82
2021/05/12 08:12:31;;;;;;;2.30;1.47;;;11.40;99.90;;;;;;5049923;28;20458;-82
2021/05/12 08:14:57;;;;;;;1.83;1.73;;;11.40;99.90;;;;;;5053047;28;20508;-82
2021/05/12 08:17:23;;;;;;;6.00;2.03;;;11.40;99.90;;;;;;5033169;28;20443;-82
2021/05/12 08:19:49;;;;;;;1.70;1.60;;;11.40;99.90;;;;;;5037010;28;20449;-82
2021/05/12 08:22:16;;;;;;;3.53;1.67;;;11.50;99.90;;;;;;5040993;28;20450;-82
2021/05/12 08:24:42;;;;;;;2.50;1.47;;;11.50;99.90;;;;;;5041597;28;20452;-82
2021/05/12 08:27:08;;;;;;;4.03;1.83;;;11.50;99.90;;;;;;5036165;28;20447;-82
2021/05/12 08:29:37;;;;;;;3.60;1.90;;;11.50;99.90;;;;;;5048395;28;20462;-82
2021/05/12 08:32:05;;;;;;;2.07;1.90;;;11.50;99.90;;;;;;5040797;28;20537;-81
2021/05/12 08:34:32;;;;;;;1.70;1.60;;;11.50;99.90;;;;;;5049446;28;20454;-81
2021/05/12 08:37:00;;;;;;;2.07;1.67;;;11.50;99.90;;;;;;5053133;28;20484;-81
2021/05/12 08:39:27;;;;;;;1.57;1.47;;;11.40;99.90;;;;;;5053000;28;20544;-81
2021/05/12 08:41:53;;;;;;;1.87;1.37;;;11.40;99.90;;;;;;5053110;28;20434;-81
2021/05/12 08:44:21;;;;;;;1.50;1.40;;;11.40;99.90;;;;;;5052840;28;20787;-81
2021/05/12 08:46:49;;;;;;;3.27;1.73;;;11.40;99.90;;;;;;5052966;28;20531;-81
2021/05/12 08:49:17;;;;;;;3.40;1.83;;;11.40;99.90;;;;;;5052576;28;20495;-81
2021/05/12 08:51:44;;;;;;;2.00;1.83;;;11.40;99.90;;;;;;5052990;28;20430;-81
2021/05/12 08:54:11;;;;;;;1.47;1.37;;;11.50;99.90;;;;;;5052441;28;20438;-81
2021/05/12 08:56:38;;;;;;;1.63;1.50;;;11.60;99.90;;;;;;5052804;28;20418;-81
2021/05/12 08:59:04;;;;;;;3.43;1.40;;;11.70;99.90;;;;;;5052680;28;20458;-81
2021/05/12 09:01:32;;;;;;;1.90;1.70;;;11.80;99.90;;;;;;5052982;28;20844;-81
2021/05/12 09:04:01;;;;;;;2.20;1.77;;;11.90;99.90;;;;;;5053307;28;20806;-82
2021/05/12 09:06:27;;;;;;;1.70;1.50;;;12.00;99.90;;;;;;5056773;28;20523;-81
2021/05/12 09:08:57;;;;;;;1.80;1.70;;;12.10;99.90;;;;;;5056569;28;20464;-82
2021/05/12 09:11:23;;;;;;;2.50;1.80;;;12.10;99.90;;;;;;5056731;28;20858;-82
2021/05/12 09:13:49;;;;;;;1.37;1.27;;;12.10;99.90;;;;;;5056433;28;20995;-82
2021/05/12 09:16:20;;;;;;;2.33;1.67;;;12.20;99.90;;;;;;5056709;28;20459;-82
2021/05/12 09:18:47;;;;;;;2.73;1.63;;;12.20;99.90;;;;;;5056619;28;20469;-82
2021/05/12 09:21:15;;;;;;;2.43;2.23;;;12.20;99.90;;;;;;5056626;28;20426;-82
2021/05/12 09:23:43;;;;;;;3.00;1.80;;;12.30;99.90;;;;;;5056538;28;20794;-82
2021/05/12 09:26:14;;;;;;;1.73;1.60;;;12.30;99.90;;;;;;5056467;28;20465;-82
2021/05/12 09:28:41;;;;;;;3.13;1.77;;;12.40;99.90;;;;;;5056330;28;20462;-82
2021/05/12 09:31:13;;;;;;;3.20;1.77;;;12.40;99.90;;;;;;5056427;28;20445;-83
2021/05/12 09:33:45;;;;;;;2.40;1.53;;;12.50;99.90;;;;;;5056381;28;20487;-82
2021/05/12 09:36:27;;;;;;;2.13;1.53;;;12.50;99.90;;;;;;5056337;28;20475;-81
2021/05/12 09:38:55;;;;;;;1.30;1.10;;;12.60;99.90;;;;;;5055910;28;20537;-79
2021/05/12 09:41:31;;;;;;;6.50;1.53;;;12.60;99.90;;;;;;5056240;28;20449;-79
2021/05/12 09:43:58;;;;;;;1.93;1.77;;;12.60;99.90;;;;;;5055839;28;20429;-79
2021/05/12 09:46:26;;;;;;;2.23;2.03;;;12.60;99.90;;;;;;5055788;28;20469;-79
2021/05/12 09:49:15;;;;;;;3.03;1.90;;;12.60;99.90;;;;;;5055664;28;20481;-79
2021/05/12 09:51:47;;;;;;;3.17;1.73;;;12.50;99.90;;;;;;5052801;28;20805;-79
2021/05/12 09:54:18;;;;;;;1.90;1.70;;;12.50;99.90;;;;;;5055925;28;20426;-82
2021/05/12 09:56:46;;;;;;;2.70;2.23;;;12.50;99.90;;;;;;5055570;28;20947;-81
2021/05/12 09:59:15;;;;;;;2.30;2.10;;;12.50;99.90;;;;;;5055512;28;21027;-82
2021/05/12 10:01:43;;;;;;;2.50;1.70;;;12.50;99.90;;;;;;5055528;28;20429;-82
2021/05/12 10:04:24;;;;;;;3.23;1.67;;;12.40;99.90;;;;;;5055474;28;20933;-81
2021/05/12 10:06:51;;;;;;;1.93;1.57;;;12.40;99.90;;;;;;5055403;28;20474;-82
2021/05/12 10:09:19;;;;;;;1.67;1.57;;;12.40;99.90;;;;;;5055470;28;21037;-81
2021/05/12 10:12:04;;;;;;;2.97;2.07;;;12.60;99.90;;;;;;5055659;28;20480;-81
2021/05/12 10:14:32;;;;;;;3.53;2.03;;;12.70;99.90;;;;;;5055633;28;20445;-82
2021/05/12 10:17:00;;;;;;;3.20;1.80;;;12.90;99.90;;;;;;5054473;28;20508;-82
2021/05/12 10:19:26;;;;;;;2.60;1.80;;;13.00;99.90;;;;;;5055477;28;20469;-78
2021/05/12 10:21:54;;;;;;;7.50;2.20;;;13.10;99.90;;;;;;5055142;28;20445;-78
2021/05/12 10:24:21;;;;;;;1.87;1.77;;;13.30;99.90;;;;;;5055415;28;20434;-79
2021/05/12 10:26:48;;;;;;;3.13;2.50;;;13.30;99.90;;;;;;5055210;28;20526;-78
2021/05/12 10:29:17;;;;;;;2.73;1.90;;;13.40;99.90;;;;;;5055259;28;20469;-82
2021/05/12 10:31:44;;;;;;;3.80;1.60;;;13.40;99.90;;;;;;5055123;28;20456;-82
2021/05/12 10:34:10;;;;;;;4.67;2.10;;;13.50;99.90;;;;;;5055226;28;20788;-83
2021/05/12 10:36:38;;;;;;;1.87;1.67;;;13.60;99.90;;;;;;5054893;28;20426;-80
2021/05/12 10:39:05;;;;;;;2.00;1.80;;;13.70;99.90;;;;;;5054851;28;20557;-81
2021/05/12 10:41:46;;;;;;;1.77;1.60;;;13.70;99.90;;;;;;5055076;28;20438;-82
2021/05/12 10:44:16;;;;;;;4.10;1.93;;;13.80;99.90;;;;;;5054848;28;20460;-81
2021/05/12 10:46:59;;;;;;;3.00;1.60;;;13.80;99.90;;;;;;5054678;28;20478;-81
2021/05/12 10:49:26;;;;;;;3.20;2.00;;;13.80;99.90;;;;;;5054389;28;20554;-81
2021/05/12 10:51:53;;;;;;;1.70;1.60;;;13.90;99.90;;;;;;5054577;28;20434;-82
2021/05/12 10:54:51;;;;;;;2.00;1.73;;;14.00;99.90;;;;;;5054806;28;20441;-82
2021/05/12 10:57:45;;;;;;;3.80;1.77;;;14.10;99.90;;;;;;5020714;28;20453;-82
2021/05/12 11:00:12;;;;;;;2.60;1.10;;;14.10;99.90;;;;;;5054317;28;20971;-78
2021/05/12 11:03:00;;;;;;;1.57;1.47;;;14.20;99.90;;;;;;5054690;28;20453;-78
2021/05/12 11:05:43;;;;;;;1.53;1.40;;;14.10;99.90;;;;;;5054563;28;20494;-78
2021/05/12 11:08:16;;;;;;;3.87;1.60;;;14.00;99.90;;;;;;5054478;28;20569;-77
2021/05/12 11:10:51;;;;;;;6.53;1.60;;;14.00;99.90;;;;;;5054255;28;20807;-78
2021/05/12 11:13:22;;;;;;;2.40;1.33;;;13.90;99.90;;;;;;5054469;28;20437;-78
2021/05/12 11:15:53;;;;;;;2.00;1.53;;;13.90;99.90;;;;;;5054396;28;20453;-78
2021/05/12 11:18:50;;;;;;;7.73;2.40;;;14.00;99.90;;;;;;5054314;28;20519;-78
2021/05/12 11:21:27;;;;;;;3.40;1.47;;;14.10;99.90;;;;;;5054055;28;20913;-78
2021/05/12 11:24:18;;;;;;;2.50;1.40;;;14.10;99.90;;;;;;5054184;28;20446;-78
2021/05/12 11:27:05;;;;;;;1.63;1.30;;;14.20;99.90;;;;;;5053614;28;20973;-78
2021/05/12 11:32:16;;;;;;;1.53;1.10;;;14.20;99.90;;;;;;5053878;28;20961;-78
2021/05/12 11:34:43;;;;;;;2.00;1.60;;;14.00;99.90;;;;;;5053790;28;20929;-78
2021/05/12 11:37:12;;;;;;;2.70;1.90;;;14.00;99.90;;;;;;5053752;28;20910;-78
2021/05/12 11:39:38;;;;;;;1.93;1.40;;;13.90;99.90;;;;;;5053942;28;20473;-79
2021/05/12 11:42:20;;;;;;;1.77;1.40;;;13.90;99.90;;;;;;5053967;28;20437;-79
2021/05/12 11:44:46;;;;;;;2.40;1.33;;;13.80;99.90;;;;;;5053943;28;20840;-79
2021/05/12 11:47:13;;;;;;;2.70;1.30;;;13.80;99.90;;;;;;5053475;28;20470;-79
2021/05/12 11:49:40;;;;;;;2.70;1.43;;;13.70;99.90;;;;;;5053411;28;20477;-79
2021/05/12 11:52:06;;;;;;;2.67;1.50;;;13.70;99.90;;;;;;5053804;28;20467;-79
2021/05/12 11:54:32;;;;;;;2.17;1.47;;;13.80;99.90;;;;;;5053686;28;20469;-80
2021/05/12 11:57:00;;;;;;;2.20;1.20;;;13.80;99.90;;;;;;5053723;28;20426;-79
2021/05/12 11:59:30;;;;;;;1.80;1.47;;;13.90;99.90;;;;;;5053652;28;20469;-81
2021/05/12 12:02:05;;;;;;;1.73;1.07;;;13.90;99.90;;;;;;5053845;28;20446;-80
2021/05/12 12:04:36;;;;;;;2.23;1.33;;;13.90;99.90;;;;;;5053337;28;20584;-79
2021/05/12 12:07:04;;;;;;;1.10;1.10;;;14.00;99.90;;;;;;5053491;28;20523;-79
2021/05/12 12:09:31;;;;;;;3.23;1.27;;;14.00;99.90;;;;;;5053478;28;20470;-79
2021/05/12 12:11:59;;;;;;;1.87;1.20;;;14.00;99.90;;;;;;5053451;28;20430;-79
2021/05/12 12:14:30;;;;;;;2.30;1.70;;;14.00;99.90;;;;;;5053007;28;20434;-79
2021/05/12 12:16:57;;;;;;;5.73;1.77;;;14.10;99.90;;;;;;5053359;28;20441;-79
2021/05/12 12:19:24;;;;;;;3.83;1.40;;;14.10;99.90;;;;;;5053010;28;20645;-79
2021/05/12 12:21:54;;;;;;;3.10;1.57;;;14.20;99.90;;;;;;5053365;28;20503;-79
2021/05/12 12:24:24;;;;;;;2.30;1.20;;;14.20;99.90;;;;;;5053308;28;20434;-79
2021/05/12 12:26:53;;;;;;;2.60;1.00;;;14.20;99.90;;;;;;5053240;28;20569;-79
2021/05/12 12:29:20;;;;;;;1.23;1.13;;;14.20;99.90;;;;;;5052875;28;20813;-79
2021/05/12 12:31:49;;;;;;;3.53;1.37;;;14.30;99.90;;;;;;5052874;28;20449;-79
2021/05/12 12:34:18;;;;;;;2.50;1.10;;;14.10;99.90;;;;;;5052983;28;20438;-79
2021/05/12 12:36:49;;;;;;;1.43;1.30;;;14.20;99.90;;;;;;5053206;28;20437;-79
2021/05/12 12:39:16;;;;;;;2.60;1.17;;;14.20;99.90;;;;;;5055814;28;20472;-79
2021/05/12 12:41:48;;;;;;;1.33;1.03;;;14.20;99.90;;;;;;5059821;28;20434;-79
2021/05/12 12:44:14;;;;;;;1.83;1.30;;;14.10;99.90;;;;;;5059789;28;20430;-79
2021/05/12 12:46:41;;;;;;;1.10;1.00;;;14.10;99.90;;;;;;5059460;28;20623;-79
2021/05/12 12:49:08;;;;;;;2.43;1.40;;;14.00;99.90;;;;;;5040549;28;20492;-78
2021/05/12 12:51:39;;;;;;;2.67;1.30;;;13.90;99.90;;;;;;5039447;28;21015;-78
2021/05/12 12:54:06;;;;;;;2.67;1.20;;;13.90;99.90;;;;;;5039485;28;20809;-79